Time;durP1;ratioP1;P1;durP2;ratioP2;P2;SDS_P1;SDS_P2;PMS_P1;PMS_P2;Temp;Humidity;BMP_temperature;BMP_pressure;BME280_temperature;BME280_humidity;BME280_pressure;Samples;Min_cycle;Max_cycle;Signal;HPM_P1;HPM_P2
2022/09/02 00:00:45;;;;;;;22.83;13.32;;;;;;;22.18;63.73;94888.56;5111046;28;20041;-85
2022/09/02 00:03:11;;;;;;;24.42;13.70;;;;;;;22.05;63.55;94854.69;5112749;28;20040;-85
2022/09/02 00:05:37;;;;;;;23.17;13.88;;;;;;;21.98;63.73;94835.66;5112243;28;20039;-86
2022/09/02 00:08:04;;;;;;;23.25;12.80;;;;;;;22.15;63.74;94861.47;5111274;28;20060;-85
2022/09/02 00:10:30;;;;;;;25.20;13.38;;;;;;;22.22;63.86;94867.00;5112817;28;20039;-85
2022/09/02 00:12:55;;;;;;;21.10;13.40;;;;;;;21.86;63.73;94808.75;5094384;28;20523;-85
2022/09/02 00:15:21;;;;;;;23.77;14.15;;;;;;;22.37;63.99;94889.69;5094467;28;20044;-85
2022/09/02 00:17:47;;;;;;;27.98;13.73;;;;;;;22.06;64.52;94848.16;5112174;28;20028;-85
2022/09/02 00:20:13;;;;;;;25.65;14.18;;;;;;;22.60;64.06;94920.28;5112161;28;20063;-85
2022/09/02 00:22:38;;;;;;;23.60;14.50;;;;;;;22.54;64.36;94936.00;5110648;28;20045;-84
2022/09/02 00:25:05;;;;;;;26.40;15.05;;;;;;;22.49;64.69;94936.28;5112315;28;20042;-85
2022/09/02 00:27:30;;;;;;;23.90;15.00;;;;;;;22.25;64.61;94896.81;5110693;28;20130;-84
2022/09/02 00:29:56;;;;;;;23.15;14.65;;;;;;;22.00;64.49;94876.59;5112258;28;20059;-85
2022/09/02 00:32:21;;;;;;;22.27;13.93;;;;;;;22.13;64.35;94872.63;5093623;28;20027;-85
2022/09/02 00:34:47;;;;;;;23.92;14.90;;;;;;;22.05;64.04;94860.09;5112326;28;20047;-85
2022/09/02 00:37:13;;;;;;;23.88;15.70;;;;;;;22.62;64.04;94948.53;5111818;28;20032;-85
2022/09/02 00:39:39;;;;;;;25.63;14.52;;;;;;;22.31;64.17;94898.09;5110545;28;20040;-85
2022/09/02 00:42:05;;;;;;;28.67;14.88;;;;;;;22.67;63.99;94956.34;5111859;28;20063;-85
2022/09/02 00:44:32;;;;;;;22.40;15.23;;;;;;;22.42;64.01;94930.75;5093485;28;20042;-85
2022/09/02 00:46:58;;;;;;;23.33;15.10;;;;;;;21.48;64.26;94787.88;5110468;28;20059;-85
2022/09/02 00:49:34;;;;;;;23.08;14.80;;;;;;;22.16;64.22;94893.53;5112306;28;20493;-86
2022/09/02 00:52:04;;;;;;;21.85;14.27;;;;;;;22.45;64.39;94934.63;5112229;28;20036;-85
2022/09/02 00:54:33;;;;;;;25.55;15.55;;;;;;;22.17;64.06;94887.00;5114878;28;20040;-85
2022/09/02 00:57:02;;;;;;;24.15;15.70;;;;;;;22.46;64.18;94931.59;5115048;28;20042;-85
2022/09/02 00:59:45;;;;;;;23.65;15.35;;;;;;;22.65;64.41;94960.56;5097636;28;20495;-85
2022/09/02 01:02:12;;;;;;;21.00;15.07;;;;;;;22.45;64.53;94921.13;5115539;28;20398;-85
2022/09/02 01:04:38;;;;;;;24.35;14.80;;;;;;;22.43;64.42;94939.63;5097637;28;20028;-85
2022/09/02 01:07:04;;;;;;;26.25;15.90;;;;;;;22.61;64.45;94967.78;5114299;28;20042;-85
2022/09/02 01:09:32;;;;;;;21.08;15.32;;;;;;;22.30;64.95;94953.25;5115835;28;20027;-85
2022/09/02 01:12:01;;;;;;;23.30;15.57;;;;;;;21.89;64.90;94938.41;5097162;28;20028;-86
2022/09/02 01:14:27;;;;;;;22.15;15.40;;;;;;;21.89;65.57;94951.91;5116216;28;20425;-85
2022/09/02 01:16:58;;;;;;;30.02;15.95;;;;;;;21.43;65.97;94901.47;5113614;28;20043;-85
2022/09/02 01:19:37;;;;;;;22.35;15.52;;;;;;;20.07;65.99;94728.50;5114100;28;20531;-85
2022/09/02 01:22:14;;;;;;;29.20;15.73;;;;;;;21.59;66.67;94960.81;5115209;28;20145;-85
2022/09/02 01:24:40;;;;;;;22.08;15.57;;;;;;;21.45;65.84;94916.16;5113571;28;20365;-86
2022/09/02 01:27:06;;;;;;;21.48;15.10;;;;;;;21.62;65.56;94939.31;5096799;28;20035;-85
2022/09/02 01:29:31;;;;;;;31.65;15.52;;;;;;;21.24;65.71;94883.25;5096637;28;20031;-86
2022/09/02 01:31:57;;;;;;;19.33;14.88;;;;;;;21.31;65.56;94942.78;5096978;28;20027;-85
2022/09/02 01:34:23;;;;;;;20.55;12.35;;;;;;;19.37;65.41;94661.63;5115383;28;20072;-85
2022/09/02 01:36:48;;;;;;;17.50;13.57;;;;;;;21.21;65.79;94969.50;5113945;28;20511;-85
2022/09/02 01:39:14;;;;;;;18.55;14.32;;;;;;;20.63;66.19;94880.09;5096717;28;20036;-85
2022/09/02 01:41:40;;;;;;;19.20;13.90;;;;;;;20.96;66.49;94920.25;5096086;28;20035;-85
2022/09/02 01:44:06;;;;;;;20.10;14.05;;;;;;;20.86;66.99;94935.00;5113641;28;20059;-87
2022/09/02 01:46:33;;;;;;;20.15;14.25;;;;;;;21.16;66.69;94940.81;5115130;28;20037;-85
2022/09/02 01:48:59;;;;;;;20.05;14.15;;;;;;;20.97;66.80;94929.91;5113312;28;20035;-85
2022/09/02 01:51:24;;;;;;;18.48;12.60;;;;;;;20.61;66.62;94875.06;5096655;28;20049;-85
2022/09/02 01:53:50;;;;;;;14.77;9.00;;;;;;;20.56;65.36;94852.97;5114978;28;20061;-85
2022/09/02 01:56:15;;;;;;;19.17;11.73;;;;;;;18.78;65.85;94568.16;5096885;28;20152;-85
2022/09/02 01:58:41;;;;;;;11.77;10.43;;;;;;;20.44;64.95;94808.03;5113785;28;20028;-86
2022/09/02 02:01:07;;;;;;;13.35;7.80;;;;;;;20.77;63.94;94845.44;5113980;28;20038;-85
2022/09/02 02:03:34;;;;;;;7.18;6.20;;;;;;;20.34;64.16;94827.38;5112693;28;20065;-86
2022/09/02 02:06:01;;;;;;;10.98;7.32;;;;;;;20.47;63.89;94828.88;5115411;28;20084;-85
2022/09/02 02:08:27;;;;;;;14.60;8.10;;;;;;;20.75;63.74;94864.66;5113666;28;20055;-85
2022/09/02 02:10:52;;;;;;;10.57;7.00;;;;;;;20.04;64.18;94765.78;5096626;28;20088;-85
2022/09/02 02:13:18;;;;;;;8.00;6.18;;;;;;;20.70;64.32;94847.97;5096608;28;20039;-85
2022/09/02 02:15:44;;;;;;;8.43;6.43;;;;;;;20.89;64.27;94856.16;5096238;28;20237;-85
2022/09/02 02:18:09;;;;;;;6.32;5.63;;;;;;;20.39;64.75;94810.97;5114774;28;20550;-85
2022/09/02 02:20:36;;;;;;;8.63;5.55;;;;;;;20.92;64.35;94887.81;5096293;28;20067;-85
2022/09/02 02:23:04;;;;;;;7.32;5.63;;;;;;;20.72;64.46;94864.56;5113595;28;20036;-85
2022/09/02 02:25:30;;;;;;;7.47;5.45;;;;;;;20.66;64.58;94861.34;5114618;28;20463;-86
2022/09/02 02:27:56;;;;;;;6.88;5.22;;;;;;;20.35;64.72;94832.41;5095777;28;20031;-85
2022/09/02 02:30:22;;;;;;;5.97;4.85;;;;;;;21.06;64.13;94920.53;5114626;28;20030;-85
2022/09/02 02:32:48;;;;;;;9.50;6.15;;;;;;;20.92;64.67;94892.41;5097263;28;20059;-85
2022/09/02 02:35:16;;;;;;;8.18;5.55;;;;;;;20.52;65.33;94868.28;5096351;28;20049;-84
2022/09/02 02:37:42;;;;;;;7.47;5.72;;;;;;;20.47;65.35;94853.13;5113305;28;20031;-85
2022/09/02 02:40:09;;;;;;;6.38;4.97;;;;;;;20.55;65.52;94872.94;5096229;28;20476;-86
2022/09/02 02:42:34;;;;;;;7.60;5.97;;;;;;;20.88;65.41;94929.28;5095732;28;20028;-85
2022/09/02 02:45:00;;;;;;;9.13;6.07;;;;;;;21.03;65.04;94929.31;5095631;28;20027;-85
2022/09/02 02:47:26;;;;;;;7.60;5.38;;;;;;;20.70;65.36;94897.25;5112671;28;20123;-85
2022/09/02 02:49:52;;;;;;;7.05;5.90;;;;;;;20.12;65.73;94803.66;5095661;28;20052;-85
2022/09/02 02:52:18;;;;;;;7.38;5.85;;;;;;;20.86;66.05;94926.16;5112779;28;20038;-85
2022/09/02 02:54:43;;;;;;;8.55;5.97;;;;;;;20.68;65.89;94888.72;5113110;28;20520;-85
2022/09/02 02:57:10;;;;;;;9.25;6.38;;;;;;;21.11;65.54;94922.19;5094769;28;20061;-86
2022/09/02 02:59:36;;;;;;;7.90;6.97;;;;;;;21.17;65.42;94920.84;5113112;28;20070;-85
2022/09/02 03:02:04;;;;;;;10.75;7.97;;;;;;;21.29;65.43;94920.75;5095946;28;20089;-85
2022/09/02 03:04:29;;;;;;;12.95;8.98;;;;;;;20.16;65.72;94764.91;5112078;28;20097;-85
2022/09/02 03:06:55;;;;;;;12.75;8.40;;;;;;;20.95;66.40;94919.47;5095553;28;20036;-85
2022/09/02 03:09:21;;;;;;;13.27;8.43;;;;;;;21.02;66.01;94916.19;5095355;28;20031;-85
2022/09/02 03:11:47;;;;;;;11.02;9.30;;;;;;;21.21;66.01;94931.72;5094921;28;20059;-85
2022/09/02 03:14:13;;;;;;;16.58;8.82;;;;;;;20.16;65.65;94758.75;5112324;28;20267;-85
2022/09/02 03:16:39;;;;;;;11.80;9.10;;;;;;;21.24;65.92;94931.81;5095025;28;20076;-85
2022/09/02 03:19:05;;;;;;;10.02;8.93;;;;;;;20.18;66.50;94797.69;5094668;28;20089;-86
2022/09/02 03:21:31;;;;;;;18.20;9.70;;;;;;;19.84;66.52;94739.81;5095042;28;20500;-85
2022/09/02 03:23:56;;;;;;;15.00;8.48;;;;;;;20.54;66.02;94852.53;5113716;28;20053;-85
2022/09/02 03:26:23;;;;;;;11.45;8.82;;;;;;;20.82;65.93;94876.75;5095176;28;20039;-85
2022/09/02 03:28:49;;;;;;;13.48;10.07;;;;;;;20.26;66.43;94807.50;5094641;28;20131;-85
2022/09/02 03:31:18;;;;;;;13.77;9.73;;;;;;;21.07;66.29;94932.09;5111176;28;20032;-86
2022/09/02 03:33:43;;;;;;;13.43;9.63;;;;;;;20.64;66.17;94855.50;5094154;28;20034;-85
2022/09/02 03:36:23;;;;;;;14.48;9.93;;;;;;;20.52;66.20;94836.69;5113219;28;20103;-85
2022/09/02 03:38:48;;;;;;;12.32;9.57;;;;;;;20.65;66.48;94870.56;5111639;28;20458;-85
2022/09/02 03:41:14;;;;;;;12.68;10.07;;;;;;;20.18;66.99;94813.03;5094740;28;20115;-85
2022/09/02 03:43:39;;;;;;;10.38;9.27;;;;;;;20.52;67.53;94898.66;5113210;28;20089;-86
2022/09/02 03:46:05;;;;;;;17.38;9.60;;;;;;;20.18;67.02;94824.59;5111443;28;20023;-85
2022/09/02 03:48:30;;;;;;;12.88;9.50;;;;;;;20.94;66.59;94922.50;5095039;28;20127;-85
2022/09/02 03:50:56;;;;;;;12.60;8.85;;;;;;;20.47;66.72;94871.97;5094730;28;20030;-86
2022/09/02 03:53:21;;;;;;;12.38;10.13;;;;;;;20.03;67.20;94819.94;5094958;28;20027;-85
2022/09/02 03:55:47;;;;;;;15.48;10.82;;;;;;;20.35;67.51;94874.72;5096268;28;20441;-86
2022/09/02 03:58:13;;;;;;;16.17;10.30;;;;;;;20.99;67.43;94965.38;5111271;28;20028;-86
2022/09/02 04:00:39;;;;;;;16.90;11.20;;;;;;;20.39;68.01;94875.59;5111693;28;20047;-86
2022/09/02 04:03:05;;;;;;;14.65;10.23;;;;;;;20.79;68.19;94967.16;5112905;28;20028;-86
2022/09/02 04:05:31;;;;;;;17.23;11.07;;;;;;;20.16;68.21;94861.06;5111188;28;20031;-86
2022/09/02 04:07:56;;;;;;;14.45;11.57;;;;;;;20.48;68.63;94927.41;5112537;28;20094;-86
2022/09/02 04:10:22;;;;;;;15.40;10.23;;;;;;;20.78;68.44;94957.50;5111309;28;20028;-87
2022/09/02 04:12:49;;;;;;;13.50;10.20;;;;;;;21.07;68.01;94975.22;5094304;28;20038;-86
2022/09/02 04:15:15;;;;;;;13.27;10.65;;;;;;;20.63;67.60;94904.34;5111642;28;20031;-86
2022/09/02 04:17:41;;;;;;;16.70;10.13;;;;;;;20.07;67.48;94812.72;5114643;28;20081;-86
2022/09/02 04:20:09;;;;;;;15.63;10.48;;;;;;;20.58;67.49;94923.47;5111268;28;20070;-86
2022/09/02 04:22:35;;;;;;;23.25;10.32;;;;;;;20.54;67.61;94936.81;5111332;28;20035;-86
2022/09/02 04:25:01;;;;;;;11.50;9.85;;;;;;;20.84;68.02;94996.56;5111293;28;20426;-86
2022/09/02 04:27:27;;;;;;;15.00;10.10;;;;;;;20.34;68.03;94932.41;5110941;28;20051;-86
2022/09/02 04:29:52;;;;;;;12.48;9.40;;;;;;;20.76;67.64;94986.69;5113042;28;20037;-86
2022/09/02 04:32:19;;;;;;;19.75;10.68;;;;;;;20.33;68.02;94925.41;5094386;28;20059;-86
2022/09/02 04:34:44;;;;;;;13.77;10.18;;;;;;;20.83;67.79;94984.19;5113172;28;20020;-86
2022/09/02 04:37:12;;;;;;;14.10;9.73;;;;;;;20.49;67.43;94931.69;5094587;28;20043;-87
2022/09/02 04:39:38;;;;;;;14.38;9.57;;;;;;;20.59;68.14;94976.22;5112911;28;20111;-86
2022/09/02 04:42:04;;;;;;;20.58;10.93;;;;;;;20.51;67.49;94921.34;5111058;28;20561;-86
2022/09/02 04:44:29;;;;;;;14.05;10.38;;;;;;;20.89;67.48;95009.03;5112444;28;20122;-86
2022/09/02 04:46:55;;;;;;;16.23;9.68;;;;;;;20.52;67.25;94932.91;5094413;28;20028;-86
2022/09/02 04:49:20;;;;;;;15.95;9.48;;;;;;;20.72;67.37;94969.66;5094194;28;20038;-86
2022/09/02 04:51:46;;;;;;;16.70;9.70;;;;;;;20.53;67.46;94954.09;5104245;28;20453;-86
2022/09/02 04:54:12;;;;;;;16.73;9.90;;;;;;;19.88;68.40;94883.34;5076564;28;20577;-86
2022/09/02 04:56:37;;;;;;;12.73;8.98;;;;;;;20.56;68.08;94969.59;5080836;28;20039;-86
2022/09/02 04:59:03;;;;;;;11.75;9.38;;;;;;;20.97;68.37;95002.72;5082518;28;20030;-86
2022/09/02 05:01:32;;;;;;;12.57;9.23;;;;;;;21.09;68.09;95006.13;5100150;28;20028;-87
2022/09/02 05:03:58;;;;;;;14.32;10.50;;;;;;;20.65;68.08;94935.22;5105079;28;20047;-86
2022/09/02 05:06:26;;;;;;;11.15;9.18;;;;;;;21.16;67.60;95010.91;5090280;28;20039;-86
2022/09/02 05:08:53;;;;;;;14.00;8.65;;;;;;;21.09;67.85;95016.13;5076354;28;20028;-87
2022/09/02 05:11:22;;;;;;;12.23;9.50;;;;;;;20.84;69.30;95003.84;5102643;28;20458;-86
2022/09/02 05:13:52;;;;;;;12.85;9.70;;;;;;;20.94;69.83;94989.91;5088484;28;20054;-86
2022/09/02 05:16:19;;;;;;;16.20;10.52;;;;;;;21.25;69.22;95014.28;5075349;28;20038;-86
2022/09/02 05:18:46;;;;;;;13.82;10.82;;;;;;;21.35;69.67;95015.72;5106624;28;20039;-87
2022/09/02 05:21:12;;;;;;;12.23;10.45;;;;;;;21.25;69.57;95008.91;5109050;28;20450;-86
2022/09/02 05:23:37;;;;;;;17.02;10.77;;;;;;;20.78;69.07;94927.84;5109252;28;20165;-86
2022/09/02 05:26:08;;;;;;;15.68;11.50;;;;;;;20.69;69.24;94922.63;5085547;28;20419;-87
2022/09/02 05:28:34;;;;;;;12.82;10.77;;;;;;;21.36;69.25;95018.03;5083313;28;20036;-86
2022/09/02 05:31:05;;;;;;;15.13;12.13;;;;;;;21.40;70.21;95020.84;5086779;28;20062;-86
2022/09/02 05:33:32;;;;;;;23.08;11.85;;;;;;;20.84;70.19;94926.47;5096106;28;20390;-86
2022/09/02 05:35:58;;;;;;;18.65;11.77;;;;;;;20.79;70.55;94924.81;5088203;28;20477;-87
2022/09/02 05:38:24;;;;;;;15.63;11.95;;;;;;;21.05;70.34;94964.03;5104139;28;20548;-86
2022/09/02 05:40:49;;;;;;;16.42;11.68;;;;;;;19.67;70.64;94785.06;5090175;28;20032;-85
2022/09/02 05:43:15;;;;;;;16.60;11.25;;;;;;;19.65;70.87;94785.41;5105755;28;20047;-85
2022/09/02 05:45:41;;;;;;;17.73;12.10;;;;;;;19.25;70.85;94743.06;5112805;27;20036;-86
2022/09/02 05:49:05;;;;;;;20.65;13.25;;;;;;;19.22;72.80;94743.00;5082148;28;20028;-86
2022/09/02 05:50:52;;;;;;;15.52;11.10;;;;;;;20.19;71.14;94890.78;5093559;28;20428;-86
2022/09/02 05:53:18;;;;;;;20.27;13.10;;;;;;;21.08;71.74;95014.56;5084247;28;20118;-85
2022/09/02 05:55:43;;;;;;;14.80;10.63;;;;;;;20.79;70.78;94978.72;5107349;28;20119;-85
2022/09/02 05:58:09;;;;;;;15.15;12.23;;;;;;;21.08;70.98;95003.75;5107250;28;20056;-86
2022/09/02 06:00:36;;;;;;;16.73;11.70;;;;;;;19.14;72.39;94696.28;5083440;28;20498;-85
2022/09/02 06:03:01;;;;;;;15.48;12.45;;;;;;;20.91;73.20;94963.63;5089820;28;20035;-86
2022/09/02 06:05:26;;;;;;;15.88;12.05;;;;;;;21.33;72.87;95010.66;5093564;28;20039;-86
2022/09/02 06:07:52;;;;;;;13.57;10.52;;;;;;;21.43;72.18;95010.16;5083826;28;20036;-86
2022/09/02 06:10:17;;;;;;;13.30;11.48;;;;;;;21.14;72.18;94975.41;5081380;28;20497;-86
2022/09/02 06:12:43;;;;;;;15.20;12.15;;;;;;;19.71;71.66;94746.38;5108597;28;20039;-86
2022/09/02 06:15:09;;;;;;;15.50;12.13;;;;;;;21.45;71.78;94999.00;5093837;28;20541;-86
2022/09/02 06:17:35;;;;;;;15.82;11.65;;;;;;;19.41;72.22;94680.53;5111348;28;20159;-86
2022/09/02 06:20:00;;;;;;;11.98;10.15;;;;;;;21.44;72.27;95019.00;5085165;28;20062;-86
2022/09/02 06:22:26;;;;;;;19.20;12.65;;;;;;;21.36;71.76;95004.53;5088827;28;20042;-86
2022/09/02 06:24:51;;;;;;;16.95;11.35;;;;;;;21.16;71.51;94932.72;5091249;28;20040;-86
2022/09/02 06:27:17;;;;;;;15.55;11.77;;;;;;;21.30;71.60;94946.59;5085230;28;20047;-86
2022/09/02 06:29:42;;;;;;;17.17;11.52;;;;;;;21.80;71.68;95018.81;5077858;28;20508;-86
2022/09/02 06:32:08;;;;;;;22.55;13.32;;;;;;;21.50;71.55;94975.25;5088817;28;20126;-86
2022/09/02 06:34:34;;;;;;;14.23;11.75;;;;;;;21.24;71.08;94917.53;5089806;28;20125;-86
2022/09/02 06:36:59;;;;;;;16.05;11.75;;;;;;;21.49;70.96;94960.19;5087373;28;20117;-86
2022/09/02 06:39:25;;;;;;;16.73;11.85;;;;;;;21.85;70.89;95005.03;5083020;28;20106;-87
2022/09/02 06:41:51;;;;;;;16.17;11.85;;;;;;;22.02;70.25;95027.44;5097913;28;20492;-87
2022/09/02 06:44:20;;;;;;;16.05;12.20;;;;;;;22.07;70.29;95036.06;5094152;28;20040;-86
2022/09/02 06:46:51;;;;;;;17.95;12.35;;;;;;;21.52;70.55;94950.63;5105845;28;20027;-88
2022/09/02 06:49:20;;;;;;;14.93;12.25;;;;;;;22.11;70.42;95028.06;5102348;28;20035;-86
2022/09/02 06:51:48;;;;;;;16.10;12.07;;;;;;;19.92;70.10;94686.97;5085095;28;20035;-87
2022/09/02 06:54:18;;;;;;;17.95;12.73;;;;;;;22.23;69.74;95034.13;5080718;28;20517;-86
2022/09/02 06:56:44;;;;;;;16.95;12.55;;;;;;;21.80;70.04;94975.63;5102743;28;20443;-86
2022/09/02 06:59:10;;;;;;;17.95;11.63;;;;;;;22.22;69.97;95034.47;5087268;28;20057;-86
2022/09/02 07:01:36;;;;;;;18.35;12.25;;;;;;;22.21;68.51;95036.38;5102311;28;20631;-86
2022/09/02 07:06:50;;;;;;;16.35;12.82;;;;;;;22.04;69.38;95017.88;5107154;28;20104;-86
2022/09/02 07:09:19;;;;;;;17.38;12.82;;;;;;;22.21;69.16;95047.19;5080897;28;20042;-85
2022/09/02 07:11:46;;;;;;;17.13;13.23;;;;;;;22.20;69.47;95053.72;5093538;28;20084;-87
2022/09/02 07:14:14;;;;;;;15.07;11.60;;;;;;;21.93;69.46;95017.56;5092965;28;20046;-86
2022/09/02 07:16:43;;;;;;;15.95;11.75;;;;;;;22.23;69.62;95053.03;5091303;28;20073;-86
2022/09/02 07:19:10;;;;;;;15.50;10.80;;;;;;;22.25;69.40;95052.69;5111250;28;20035;-87
2022/09/02 07:21:35;;;;;;;13.43;11.57;;;;;;;22.09;70.20;95039.19;5079534;28;20067;-87
2022/09/02 07:24:01;;;;;;;19.85;13.18;;;;;;;22.27;70.16;95028.81;5087151;28;20039;-87
2022/09/02 07:26:27;;;;;;;18.73;15.20;;;;;;;22.42;70.58;95044.22;5103290;28;20331;-87
2022/09/02 07:28:56;;;;;;;21.35;16.58;;;;;;;20.26;69.68;94726.75;5091063;28;20114;-87
2022/09/02 07:31:22;;;;;;;21.35;17.25;;;;;;;22.31;69.32;95041.28;5088153;28;20424;-87
2022/09/02 07:33:50;;;;;;;22.75;17.00;;;;;;;20.90;69.91;94792.28;5083234;28;20462;-87
2022/09/02 07:36:20;;;;;;;26.10;16.25;;;;;;;21.03;70.41;94821.47;5091999;28;20488;-87
2022/09/02 07:38:45;;;;;;;22.13;16.35;;;;;;;;;;5092173;28;20564;-87
2022/09/02 07:41:12;;;;;;;17.50;14.05;;;;;;;22.00;68.73;94962.19;5109872;28;20034;-87
2022/09/02 07:43:37;;;;;;;18.00;13.25;;;;;;;21.85;68.09;94942.94;5109613;28;20051;-86
2022/09/02 07:46:04;;;;;;;19.63;13.85;;;;;;;20.52;68.54;94731.63;5082504;28;20032;-86
2022/09/02 07:48:30;;;;;;;16.20;12.90;;;;;;;21.55;68.46;94904.06;5086820;28;20036;-86
2022/09/02 07:50:56;;;;;;;15.55;12.73;;;;;;;22.37;68.57;94995.06;5108791;28;20061;-86
2022/09/02 07:53:22;;;;;;;17.42;13.10;;;;;;;22.86;68.96;95046.75;5110059;28;20024;-86
2022/09/02 07:55:48;;;;;;;18.83;13.05;;;;;;;21.31;68.54;94821.41;5091544;28;20268;-86
2022/09/02 07:58:16;;;;;;;18.38;12.70;;;;;;;21.86;67.87;94882.44;5088238;28;20501;-86
2022/09/02 08:00:42;;;;;;;20.02;14.07;;;;;;;23.04;66.67;95066.81;5078130;28;20569;-86
2022/09/02 08:03:10;;;;;;;18.45;12.35;;;;;;;21.41;65.93;94825.50;5084084;28;20032;-86
2022/09/02 08:05:37;;;;;;;14.70;11.85;;;;;;;23.05;65.32;95071.09;5081607;28;20474;-86
2022/09/02 08:08:03;;;;;;;13.95;11.65;;;;;;;23.08;64.98;95075.81;5080525;28;20406;-86
2022/09/02 08:10:34;;;;;;;17.23;12.07;;;;;;;22.48;66.45;94990.69;5081575;28;20027;-86
2022/09/02 08:13:00;;;;;;;12.90;11.10;;;;;;;23.17;65.71;95070.19;5092099;28;20063;-85
2022/09/02 08:15:28;;;;;;;17.42;12.35;;;;;;;23.23;66.31;95076.88;5106762;28;20104;-86
2022/09/02 08:17:56;;;;;;;19.65;11.73;;;;;;;23.31;66.20;95079.38;5102132;28;20403;-85
2022/09/02 08:20:22;;;;;;;15.88;11.50;;;;;;;22.16;65.51;94911.66;5099947;28;20050;-86
2022/09/02 08:22:48;;;;;;;12.65;10.70;;;;;;;22.92;65.42;95023.69;5084105;28;20040;-86
2022/09/02 08:25:16;;;;;;;15.45;10.57;;;;;;;22.84;64.37;95013.88;5092080;28;20059;-86
2022/09/02 08:27:42;;;;;;;14.07;10.10;;;;;;;22.88;64.77;95023.63;5103269;28;20114;-86
2022/09/02 08:30:11;;;;;;;14.90;10.38;;;;;;;22.79;64.21;95012.25;5091679;28;20516;-86
2022/09/02 08:32:38;;;;;;;11.95;10.43;;;;;;;23.22;64.83;95078.78;5105398;28;20035;-86
2022/09/02 08:35:05;;;;;;;12.90;8.60;;;;;;;22.51;64.30;94957.53;5104928;28;20089;-86
2022/09/02 08:37:32;;;;;;;11.50;8.65;;;;;;;22.88;64.05;95015.53;5087252;28;20027;-86
2022/09/02 08:39:58;;;;;;;10.02;8.75;;;;;;;23.07;64.59;95079.63;5081763;28;20065;-86
2022/09/02 08:42:32;;;;;;;13.02;8.80;;;;;;;22.69;63.95;95005.44;5089195;28;20526;-86
2022/09/02 08:45:24;;;;;;;17.48;10.27;;;;;;;23.23;63.44;95072.25;5079503;28;20108;-86
2022/09/02 08:48:00;;;;;;;13.60;9.43;;;;;;;23.05;64.74;95030.53;5087882;28;20032;-86
2022/09/02 08:50:26;;;;;;;11.35;8.93;;;;;;;22.60;64.28;94958.13;5107590;28;20123;-86
2022/09/02 08:53:15;;;;;;;14.90;9.02;;;;;;;23.31;63.91;95067.75;5104945;28;20039;-87
2022/09/02 08:55:49;;;;;;;13.40;8.77;;;;;;;23.08;64.19;95044.13;5099360;28;20038;-86
2022/09/02 08:58:21;;;;;;;11.48;8.75;;;;;;;22.86;63.89;94995.38;5095114;28;20039;-87
2022/09/02 09:00:59;;;;;;;14.10;8.15;;;;;;;22.90;63.94;94991.59;5102243;28;20518;-85
2022/09/02 09:03:37;;;;;;;10.00;8.63;;;;;;;22.65;63.75;94947.03;5092314;28;20047;-86
2022/09/02 09:06:15;;;;;;;11.93;8.10;;;;;;;23.13;64.14;95017.91;5108296;28;20028;-86
2022/09/02 09:08:56;;;;;;;8.60;7.70;;;;;;;23.27;63.80;95018.97;5083820;28;20036;-86
2022/09/02 09:11:37;;;;;;;11.43;7.75;;;;;;;23.27;63.47;95024.38;5102496;28;20085;-86
2022/09/02 09:14:35;;;;;;;10.90;8.95;;;;;;;23.68;63.26;95052.66;5093855;28;20567;-86
2022/09/02 09:17:15;;;;;;;12.93;9.95;;;;;;;23.65;63.46;95047.19;5078688;28;20043;-86
2022/09/02 09:19:43;;;;;;;11.82;10.52;;;;;;;23.74;62.98;95045.00;5101292;28;20140;-86
2022/09/02 09:22:16;;;;;;;13.73;8.75;;;;;;;22.21;61.56;94825.72;5080242;28;20036;-85
2022/09/02 09:24:44;;;;;;;10.52;8.90;;;;;;;23.82;62.24;95050.19;5105147;28;20689;-86
2022/09/02 09:27:18;;;;;;;13.10;10.10;;;;;;;23.38;60.88;94975.91;5094176;28;20040;-86
2022/09/02 09:29:44;;;;;;;19.73;10.20;;;;;;;23.69;60.75;95040.69;5106933;28;20186;-86
2022/09/02 09:32:40;;;;;;;16.27;11.02;;;;;;;23.77;60.84;95042.38;5108398;28;20039;-85
2022/09/02 09:35:10;;;;;;;16.08;11.73;;;;;;;23.94;61.27;95035.69;5107846;28;20472;-86
2022/09/02 09:37:43;;;;;;;20.25;10.90;;;;;;;23.93;61.12;95039.53;5098530;28;20457;-86
2022/09/02 09:40:27;;;;;;;14.13;10.27;;;;;;;23.41;61.02;94927.25;5081653;28;20039;-86
2022/09/02 09:43:02;;;;;;;18.65;11.48;;;;;;;24.11;60.62;95037.09;5095199;28;20466;-86
2022/09/02 09:45:32;;;;;;;14.55;11.40;;;;;;;24.19;60.18;95025.25;5093849;28;20043;-87
2022/09/02 09:48:16;;;;;;;13.43;11.23;;;;;;;24.39;61.17;95025.97;5079637;28;20035;-86
2022/09/02 09:50:43;;;;;;;18.15;11.98;;;;;;;24.39;59.95;95025.97;5095335;28;20032;-86
2022/09/02 09:53:26;;;;;;;13.32;11.05;;;;;;;24.38;59.73;95000.81;5092342;28;20152;-86
2022/09/02 09:55:53;;;;;;;14.40;10.90;;;;;;;24.57;59.44;95008.81;5107544;28;20067;-86
2022/09/02 09:58:22;;;;;;;23.33;11.63;;;;;;;24.83;59.86;95026.19;5112178;28;20532;-86
2022/09/02 10:00:48;;;;;;;17.60;12.63;;;;;;;24.35;59.80;94957.38;5084414;28;20027;-86
2022/09/02 10:03:24;;;;;;;18.17;13.45;;;;;;;24.42;58.66;94974.50;5104661;28;20031;-86
2022/09/02 10:06:12;;;;;;;13.68;12.15;;;;;;;24.57;58.53;94992.53;5102055;28;20036;-86
2022/09/02 10:08:53;;;;;;;23.42;11.98;;;;;;;24.91;58.33;95033.31;5083671;28;20039;-86
2022/09/02 10:11:25;;;;;;;16.52;10.75;;;;;;;23.18;57.66;94802.03;5091425;28;20031;-86
2022/09/02 10:13:52;;;;;;;;;;;;;;;24.78;58.78;95034.66;5091101;28;20039;-86
2022/09/02 10:16:55;;;;;;;13.20;11.73;;;;;;;24.47;56.80;94987.78;5089947;28;19920;-86
2022/09/02 10:19:42;;;;;;;18.38;11.45;;;;;;;24.41;58.64;94980.31;5106048;28;20047;-86
2022/09/02 10:22:46;;;;;;;16.90;10.52;;;;;;;24.84;57.83;95028.56;5106041;28;20031;-86
2022/09/02 10:25:28;;;;;;;16.13;12.00;;;;;;;24.54;56.74;95033.97;5037593;28;20042;-86
2022/09/02 10:27:54;;;;;;;;;;;;;;;24.28;56.59;95035.88;5086727;28;20043;-86
2022/09/02 10:30:24;;;;;;;18.30;11.43;;;;;;;24.47;58.13;95030.34;5089937;28;19916;-85
2022/09/02 10:32:55;;;;;;;21.92;13.32;;;;;;;24.63;59.27;95022.84;5100237;28;20049;-85
2022/09/02 10:35:35;;;;;;;19.73;13.48;;;;;;;24.82;58.57;95020.00;5109838;28;20569;-85
2022/09/02 10:38:28;;;;;;;16.48;11.63;;;;;;;25.20;57.23;95023.59;5107314;28;20055;-86
2022/09/02 10:41:13;;;;;;;18.08;11.55;;;;;;;25.36;56.47;94997.81;5107852;28;20423;-86
2022/09/02 10:43:57;;;;;;;16.05;12.63;;;;;;;25.64;55.25;95027.19;5075512;28;20089;-85
2022/09/02 10:46:24;;;;;;;23.17;12.25;;;;;;;25.02;54.27;94912.16;5086338;28;20101;-85
2022/09/02 10:49:04;;;;;;;29.90;17.02;;;;;;;25.31;54.40;94930.28;5091278;28;20028;-87
2022/09/02 10:52:02;;;;;;;13.27;9.77;;;;;;;26.11;54.01;95025.69;5088812;28;20070;-86
2022/09/02 10:54:46;;;;;;;13.57;10.90;;;;;;;26.27;53.52;95026.22;5102182;28;20047;-86
2022/09/02 10:57:18;;;;;;;19.63;11.38;;;;;;;26.39;53.43;95030.59;5086272;28;20481;-86
2022/09/02 11:00:14;;;;;;;13.52;9.88;;;;;;;26.18;53.07;94992.34;5111204;28;20624;-86
2022/09/02 11:02:43;;;;;;;15.50;10.98;;;;;;;26.39;51.81;95012.34;5088828;28;20027;-86
2022/09/02 11:05:36;;;;;;;16.38;9.88;;;;;;;26.56;51.52;95005.44;5102994;28;20044;-86
2022/09/02 11:08:25;;;;;;;14.57;10.50;;;;;;;26.77;51.39;95019.19;5103376;28;20114;-86
2022/09/02 11:11:06;;;;;;;14.38;9.20;;;;;;;26.83;50.58;95008.72;5081196;28;20047;-86
2022/09/02 11:14:07;;;;;;;12.93;10.85;;;;;;;27.04;50.85;95006.13;5083840;28;20035;-86
2022/09/02 11:16:44;;;;;;;15.60;10.75;;;;;;;27.44;49.33;95007.81;5058309;28;20057;-86
2022/09/02 11:19:26;;;;;;;15.32;10.98;;;;;;;27.58;47.98;94979.88;5091205;28;20069;-86
2022/09/02 11:22:06;;;;;;;;;;;;;;;28.25;46.68;95015.38;5092130;28;20105;-86
2022/09/02 11:24:37;;;;;;;15.52;10.43;;;;;;;28.71;46.11;95009.06;5093056;28;20405;-86
2022/09/02 11:27:26;;;;;;;13.15;11.02;;;;;;;28.85;44.71;95006.34;5108793;28;20055;-86
2022/09/02 11:30:10;;;;;;;16.48;9.90;;;;;;;28.82;45.01;95001.69;5081504;28;20031;-86
2022/09/02 11:32:51;;;;;;;13.23;10.25;;;;;;;28.82;45.21;95003.63;5090116;28;20035;-86
2022/09/02 11:35:25;;;;;;;;;;;;;;;28.73;45.10;94996.59;5091623;28;20034;-86